sensor_id;sensor_type;location;lat;lon;timestamp;P1;durP1;ratioP1;P2;durP2;ratioP2
67696;SDS011;54486;51.442;6.778;2023-03-21T00:01:53;14.77;;;6.22;;
67696;SDS011;54486;51.442;6.778;2023-03-21T00:04:22;15.23;;;6.25;;
67696;SDS011;54486;51.442;6.778;2023-03-21T00:06:50;15.27;;;5.50;;
67696;SDS011;54486;51.442;6.778;2023-03-21T00:09:19;16.33;;;5.28;;
67696;SDS011;54486;51.442;6.778;2023-03-21T00:11:48;13.65;;;4.85;;
67696;SDS011;54486;51.442;6.778;2023-03-21T00:14:14;14.50;;;4.90;;
67696;SDS011;54486;51.442;6.778;2023-03-21T00:16:45;12.60;;;4.50;;
67696;SDS011;54486;51.442;6.778;2023-03-21T00:19:17;14.63;;;4.72;;
67696;SDS011;54486;51.442;6.778;2023-03-21T00:21:46;13.50;;;4.68;;
67696;SDS011;54486;51.442;6.778;2023-03-21T00:24:35;12.65;;;4.55;;
67696;SDS011;54486;51.442;6.778;2023-03-21T00:27:03;11.82;;;4.28;;
67696;SDS011;54486;51.442;6.778;2023-03-21T00:29:50;12.13;;;4.60;;
67696;SDS011;54486;51.442;6.778;2023-03-21T00:32:18;11.00;;;4.40;;
67696;SDS011;54486;51.442;6.778;2023-03-21T00:34:46;12.88;;;4.38;;
67696;SDS011;54486;51.442;6.778;2023-03-21T00:37:34;12.02;;;4.88;;
67696;SDS011;54486;51.442;6.778;2023-03-21T00:40:01;14.65;;;4.78;;
67696;SDS011;54486;51.442;6.778;2023-03-21T00:42:30;13.25;;;4.70;;
67696;SDS011;54486;51.442;6.778;2023-03-21T00:44:57;13.10;;;4.90;;
67696;SDS011;54486;51.442;6.778;2023-03-21T00:47:24;10.73;;;4.00;;
67696;SDS011;54486;51.442;6.778;2023-03-21T00:49:52;11.73;;;4.65;;
67696;SDS011;54486;51.442;6.778;2023-03-21T00:52:19;11.98;;;4.95;;
67696;SDS011;54486;51.442;6.778;2023-03-21T00:55:05;12.63;;;4.90;;
67696;SDS011;54486;51.442;6.778;2023-03-21T00:57:33;14.18;;;4.78;;
67696;SDS011;54486;51.442;6.778;2023-03-21T01:00:06;14.70;;;5.47;;
67696;SDS011;54486;51.442;6.778;2023-03-21T01:02:39;12.63;;;5.60;;
67696;SDS011;54486;51.442;6.778;2023-03-21T01:05:33;13.95;;;5.55;;
67696;SDS011;54486;51.442;6.778;2023-03-21T01:08:21;16.00;;;5.55;;
67696;SDS011;54486;51.442;6.778;2023-03-21T01:11:00;10.97;;;4.87;;
67696;SDS011;54486;51.442;6.778;2023-03-21T01:13:29;12.95;;;4.93;;
67696;SDS011;54486;51.442;6.778;2023-03-21T01:16:00;13.10;;;5.35;;
67696;SDS011;54486;51.442;6.778;2023-03-21T01:18:31;15.25;;;5.53;;
67696;SDS011;54486;51.442;6.778;2023-03-21T01:20:59;12.80;;;5.10;;
67696;SDS011;54486;51.442;6.778;2023-03-21T01:23:28;14.02;;;5.93;;
67696;SDS011;54486;51.442;6.778;2023-03-21T01:25:56;14.88;;;5.97;;
67696;SDS011;54486;51.442;6.778;2023-03-21T01:28:27;15.48;;;6.05;;
67696;SDS011;54486;51.442;6.778;2023-03-21T01:30:55;14.30;;;6.20;;
67696;SDS011;54486;51.442;6.778;2023-03-21T01:33:23;15.00;;;6.22;;
67696;SDS011;54486;51.442;6.778;2023-03-21T01:35:50;14.97;;;5.50;;
67696;SDS011;54486;51.442;6.778;2023-03-21T01:38:36;14.65;;;5.65;;
67696;SDS011;54486;51.442;6.778;2023-03-21T01:41:03;16.17;;;5.78;;
67696;SDS011;54486;51.442;6.778;2023-03-21T01:43:45;14.30;;;5.90;;
67696;SDS011;54486;51.442;6.778;2023-03-21T01:48:47;12.90;;;5.22;;
67696;SDS011;54486;51.442;6.778;2023-03-21T01:51:21;16.52;;;5.30;;
67696;SDS011;54486;51.442;6.778;2023-03-21T01:53:52;12.55;;;5.78;;
67696;SDS011;54486;51.442;6.778;2023-03-21T01:56:33;14.25;;;5.65;;
67696;SDS011;54486;51.442;6.778;2023-03-21T01:59:37;16.00;;;5.70;;
67696;SDS011;54486;51.442;6.778;2023-03-21T02:02:14;14.77;;;5.72;;
67696;SDS011;54486;51.442;6.778;2023-03-21T02:04:46;14.00;;;6.47;;
67696;SDS011;54486;51.442;6.778;2023-03-21T02:07:17;13.82;;;5.75;;
67696;SDS011;54486;51.442;6.778;2023-03-21T02:09:52;16.13;;;6.47;;
67696;SDS011;54486;51.442;6.778;2023-03-21T02:12:21;14.48;;;6.05;;
67696;SDS011;54486;51.442;6.778;2023-03-21T02:14:49;14.30;;;6.00;;
67696;SDS011;54486;51.442;6.778;2023-03-21T02:17:27;16.13;;;6.40;;
67696;SDS011;54486;51.442;6.778;2023-03-21T02:36:47;15.52;;;6.13;;
67696;SDS011;54486;51.442;6.778;2023-03-21T02:39:20;17.75;;;6.43;;
67696;SDS011;54486;51.442;6.778;2023-03-21T02:44:41;14.48;;;6.07;;
67696;SDS011;54486;51.442;6.778;2023-03-21T02:47:23;15.10;;;6.10;;
67696;SDS011;54486;51.442;6.778;2023-03-21T02:49:57;15.13;;;5.95;;
67696;SDS011;54486;51.442;6.778;2023-03-21T02:52:43;15.60;;;6.25;;
67696;SDS011;54486;51.442;6.778;2023-03-21T02:55:14;14.63;;;6.40;;
67696;SDS011;54486;51.442;6.778;2023-03-21T02:57:46;15.77;;;6.28;;
67696;SDS011;54486;51.442;6.778;2023-03-21T03:00:17;15.20;;;5.75;;
67696;SDS011;54486;51.442;6.778;2023-03-21T03:02:47;14.43;;;6.00;;
67696;SDS011;54486;51.442;6.778;2023-03-21T03:05:35;14.88;;;6.22;;
67696;SDS011;54486;51.442;6.778;2023-03-21T03:08:17;14.55;;;6.60;;
67696;SDS011;54486;51.442;6.778;2023-03-21T03:20:40;14.95;;;6.45;;
67696;SDS011;54486;51.442;6.778;2023-03-21T03:23:32;13.13;;;5.55;;
67696;SDS011;54486;51.442;6.778;2023-03-21T03:26:12;16.48;;;5.85;;
67696;SDS011;54486;51.442;6.778;2023-03-21T03:28:45;15.55;;;6.20;;
67696;SDS011;54486;51.442;6.778;2023-03-21T03:31:19;15.30;;;6.67;;
67696;SDS011;54486;51.442;6.778;2023-03-21T03:33:53;14.52;;;5.72;;
67696;SDS011;54486;51.442;6.778;2023-03-21T03:36:26;12.75;;;5.70;;
67696;SDS011;54486;51.442;6.778;2023-03-21T03:39:03;16.23;;;6.18;;
67696;SDS011;54486;51.442;6.778;2023-03-21T03:41:34;16.08;;;6.10;;
67696;SDS011;54486;51.442;6.778;2023-03-21T03:44:28;15.25;;;5.68;;
67696;SDS011;54486;51.442;6.778;2023-03-21T03:47:15;14.27;;;5.75;;
67696;SDS011;54486;51.442;6.778;2023-03-21T03:52:48;14.50;;;6.07;;
67696;SDS011;54486;51.442;6.778;2023-03-21T03:55:24;15.05;;;5.82;;
67696;SDS011;54486;51.442;6.778;2023-03-21T03:57:54;13.53;;;6.17;;
67696;SDS011;54486;51.442;6.778;2023-03-21T04:00:22;16.38;;;6.28;;
67696;SDS011;54486;51.442;6.778;2023-03-21T04:02:50;14.52;;;5.85;;
67696;SDS011;54486;51.442;6.778;2023-03-21T04:05:18;14.55;;;5.18;;
67696;SDS011;54486;51.442;6.778;2023-03-21T04:07:47;13.48;;;5.53;;
67696;SDS011;54486;51.442;6.778;2023-03-21T04:10:17;13.57;;;5.83;;
67696;SDS011;54486;51.442;6.778;2023-03-21T04:12:45;15.05;;;5.75;;
67696;SDS011;54486;51.442;6.778;2023-03-21T04:15:12;16.08;;;5.65;;
67696;SDS011;54486;51.442;6.778;2023-03-21T04:17:39;14.17;;;5.70;;
67696;SDS011;54486;51.442;6.778;2023-03-21T04:20:07;14.60;;;5.83;;
67696;SDS011;54486;51.442;6.778;2023-03-21T04:22:42;15.77;;;5.93;;
67696;SDS011;54486;51.442;6.778;2023-03-21T04:25:10;14.88;;;5.80;;
67696;SDS011;54486;51.442;6.778;2023-03-21T04:27:39;16.92;;;6.00;;
67696;SDS011;54486;51.442;6.778;2023-03-21T04:30:06;16.13;;;6.07;;
67696;SDS011;54486;51.442;6.778;2023-03-21T04:32:35;16.02;;;6.15;;
67696;SDS011;54486;51.442;6.778;2023-03-21T04:35:06;14.93;;;6.47;;
67696;SDS011;54486;51.442;6.778;2023-03-21T04:37:34;15.15;;;5.85;;
67696;SDS011;54486;51.442;6.778;2023-03-21T04:40:02;16.23;;;5.87;;
67696;SDS011;54486;51.442;6.778;2023-03-21T04:42:33;15.52;;;5.90;;
67696;SDS011;54486;51.442;6.778;2023-03-21T04:45:01;14.95;;;6.18;;
67696;SDS011;54486;51.442;6.778;2023-03-21T04:47:30;13.60;;;5.78;;
67696;SDS011;54486;51.442;6.778;2023-03-21T04:49:59;15.52;;;5.75;;
67696;SDS011;54486;51.442;6.778;2023-03-21T04:52:29;16.75;;;6.18;;
67696;SDS011;54486;51.442;6.778;2023-03-21T04:54:56;16.88;;;6.55;;
67696;SDS011;54486;51.442;6.778;2023-03-21T04:57:24;15.10;;;5.70;;
67696;SDS011;54486;51.442;6.778;2023-03-21T04:59:51;14.02;;;5.57;;
67696;SDS011;54486;51.442;6.778;2023-03-21T05:02:18;13.95;;;5.90;;
67696;SDS011;54486;51.442;6.778;2023-03-21T05:04:45;14.02;;;5.68;;
67696;SDS011;54486;51.442;6.778;2023-03-21T05:07:13;14.63;;;6.17;;
67696;SDS011;54486;51.442;6.778;2023-03-21T05:09:40;14.48;;;6.32;;
67696;SDS011;54486;51.442;6.778;2023-03-21T05:12:07;14.48;;;5.82;;
67696;SDS011;54486;51.442;6.778;2023-03-21T05:14:34;14.93;;;6.30;;
67696;SDS011;54486;51.442;6.778;2023-03-21T05:17:02;16.13;;;6.25;;
67696;SDS011;54486;51.442;6.778;2023-03-21T05:19:31;14.65;;;5.70;;
67696;SDS011;54486;51.442;6.778;2023-03-21T05:22:03;14.40;;;5.77;;
67696;SDS011;54486;51.442;6.778;2023-03-21T05:24:32;14.95;;;5.65;;
67696;SDS011;54486;51.442;6.778;2023-03-21T05:27:00;14.48;;;5.70;;
67696;SDS011;54486;51.442;6.778;2023-03-21T05:29:28;18.55;;;6.05;;
67696;SDS011;54486;51.442;6.778;2023-03-21T05:31:59;15.40;;;5.60;;
67696;SDS011;54486;51.442;6.778;2023-03-21T05:34:27;14.75;;;6.22;;
67696;SDS011;54486;51.442;6.778;2023-03-21T05:36:55;14.18;;;6.13;;
67696;SDS011;54486;51.442;6.778;2023-03-21T05:39:22;15.48;;;5.95;;
67696;SDS011;54486;51.442;6.778;2023-03-21T05:41:50;13.88;;;5.97;;
67696;SDS011;54486;51.442;6.778;2023-03-21T05:44:17;14.80;;;6.05;;
67696;SDS011;54486;51.442;6.778;2023-03-21T05:46:44;15.73;;;6.20;;
67696;SDS011;54486;51.442;6.778;2023-03-21T05:49:11;13.70;;;5.93;;
67696;SDS011;54486;51.442;6.778;2023-03-21T05:51:39;12.88;;;5.57;;
67696;SDS011;54486;51.442;6.778;2023-03-21T05:54:06;15.05;;;5.88;;
67696;SDS011;54486;51.442;6.778;2023-03-21T05:56:33;17.20;;;6.70;;
67696;SDS011;54486;51.442;6.778;2023-03-21T05:59:00;14.85;;;6.53;;
67696;SDS011;54486;51.442;6.778;2023-03-21T06:01:27;14.55;;;6.25;;
67696;SDS011;54486;51.442;6.778;2023-03-21T06:03:55;14.02;;;5.95;;
67696;SDS011;54486;51.442;6.778;2023-03-21T06:06:22;13.25;;;6.07;;
67696;SDS011;54486;51.442;6.778;2023-03-21T06:08:49;15.32;;;6.18;;
67696;SDS011;54486;51.442;6.778;2023-03-21T06:11:30;16.05;;;6.47;;
67696;SDS011;54486;51.442;6.778;2023-03-21T06:14:00;14.98;;;6.70;;
67696;SDS011;54486;51.442;6.778;2023-03-21T06:16:27;13.27;;;6.10;;
67696;SDS011;54486;51.442;6.778;2023-03-21T06:18:55;16.92;;;7.15;;
67696;SDS011;54486;51.442;6.778;2023-03-21T06:21:22;15.55;;;6.40;;
67696;SDS011;54486;51.442;6.778;2023-03-21T06:23:52;14.32;;;6.50;;
67696;SDS011;54486;51.442;6.778;2023-03-21T06:26:20;15.20;;;6.30;;
67696;SDS011;54486;51.442;6.778;2023-03-21T06:28:49;14.18;;;6.10;;
67696;SDS011;54486;51.442;6.778;2023-03-21T06:31:17;16.00;;;6.03;;
67696;SDS011;54486;51.442;6.778;2023-03-21T06:33:46;13.55;;;6.13;;
67696;SDS011;54486;51.442;6.778;2023-03-21T06:36:14;15.55;;;6.45;;
67696;SDS011;54486;51.442;6.778;2023-03-21T06:38:41;15.23;;;6.00;;
67696;SDS011;54486;51.442;6.778;2023-03-21T06:41:08;13.63;;;5.60;;
67696;SDS011;54486;51.442;6.778;2023-03-21T06:43:35;13.95;;;5.88;;
67696;SDS011;54486;51.442;6.778;2023-03-21T06:46:03;15.15;;;6.07;;
67696;SDS011;54486;51.442;6.778;2023-03-21T06:48:31;14.02;;;5.90;;
67696;SDS011;54486;51.442;6.778;2023-03-21T06:50:58;16.30;;;5.85;;
67696;SDS011;54486;51.442;6.778;2023-03-21T06:53:25;13.55;;;5.63;;
67696;SDS011;54486;51.442;6.778;2023-03-21T06:55:53;15.25;;;6.13;;
67696;SDS011;54486;51.442;6.778;2023-03-21T06:58:20;15.77;;;6.30;;
67696;SDS011;54486;51.442;6.778;2023-03-21T07:00:48;14.45;;;5.70;;
67696;SDS011;54486;51.442;6.778;2023-03-21T07:03:15;15.90;;;5.77;;
67696;SDS011;54486;51.442;6.778;2023-03-21T07:05:43;14.07;;;5.63;;
67696;SDS011;54486;51.442;6.778;2023-03-21T07:08:10;14.02;;;5.63;;
67696;SDS011;54486;51.442;6.778;2023-03-21T07:10:41;13.00;;;5.68;;
67696;SDS011;54486;51.442;6.778;2023-03-21T07:13:11;15.85;;;6.35;;
67696;SDS011;54486;51.442;6.778;2023-03-21T07:15:39;15.80;;;6.25;;
67696;SDS011;54486;51.442;6.778;2023-03-21T07:18:07;11.98;;;5.45;;
67696;SDS011;54486;51.442;6.778;2023-03-21T07:20:35;13.43;;;6.10;;
67696;SDS011;54486;51.442;6.778;2023-03-21T07:23:03;16.77;;;6.20;;
67696;SDS011;54486;51.442;6.778;2023-03-21T07:25:31;12.35;;;5.85;;
67696;SDS011;54486;51.442;6.778;2023-03-21T07:27:59;14.20;;;5.78;;
67696;SDS011;54486;51.442;6.778;2023-03-21T07:30:26;12.55;;;5.82;;
67696;SDS011;54486;51.442;6.778;2023-03-21T07:32:53;14.35;;;6.22;;
67696;SDS011;54486;51.442;6.778;2023-03-21T07:35:20;16.40;;;6.13;;
67696;SDS011;54486;51.442;6.778;2023-03-21T07:37:47;14.48;;;5.43;;
67696;SDS011;54486;51.442;6.778;2023-03-21T07:40:15;13.90;;;5.25;;
67696;SDS011;54486;51.442;6.778;2023-03-21T07:42:44;14.40;;;5.38;;
67696;SDS011;54486;51.442;6.778;2023-03-21T07:45:14;13.40;;;5.40;;
67696;SDS011;54486;51.442;6.778;2023-03-21T07:47:47;12.33;;;5.70;;
67696;SDS011;54486;51.442;6.778;2023-03-21T07:50:14;14.90;;;5.07;;
67696;SDS011;54486;51.442;6.778;2023-03-21T07:52:42;14.65;;;5.63;;
67696;SDS011;54486;51.442;6.778;2023-03-21T07:55:09;15.18;;;5.10;;
67696;SDS011;54486;51.442;6.778;2023-03-21T07:57:37;11.80;;;5.22;;
67696;SDS011;54486;51.442;6.778;2023-03-21T08:00:08;14.07;;;5.32;;
67696;SDS011;54486;51.442;6.778;2023-03-21T08:02:36;12.80;;;5.07;;
67696;SDS011;54486;51.442;6.778;2023-03-21T08:05:03;11.63;;;4.80;;
67696;SDS011;54486;51.442;6.778;2023-03-21T08:07:30;14.70;;;5.03;;
67696;SDS011;54486;51.442;6.778;2023-03-21T08:09:58;13.07;;;4.73;;
67696;SDS011;54486;51.442;6.778;2023-03-21T08:12:25;12.90;;;4.93;;
67696;SDS011;54486;51.442;6.778;2023-03-21T08:14:52;11.20;;;4.53;;
67696;SDS011;54486;51.442;6.778;2023-03-21T08:17:19;12.45;;;5.10;;
67696;SDS011;54486;51.442;6.778;2023-03-21T08:19:46;12.02;;;4.35;;
67696;SDS011;54486;51.442;6.778;2023-03-21T08:22:13;12.80;;;4.65;;
67696;SDS011;54486;51.442;6.778;2023-03-21T08:24:41;12.02;;;4.47;;
67696;SDS011;54486;51.442;6.778;2023-03-21T08:27:08;12.15;;;5.20;;
67696;SDS011;54486;51.442;6.778;2023-03-21T08:29:36;12.43;;;4.65;;
67696;SDS011;54486;51.442;6.778;2023-03-21T08:32:06;12.57;;;4.93;;
67696;SDS011;54486;51.442;6.778;2023-03-21T08:34:34;12.88;;;4.93;;
67696;SDS011;54486;51.442;6.778;2023-03-21T08:37:01;11.65;;;4.85;;
67696;SDS011;54486;51.442;6.778;2023-03-21T08:39:30;14.45;;;5.10;;
67696;SDS011;54486;51.442;6.778;2023-03-21T08:41:57;12.52;;;5.30;;
67696;SDS011;54486;51.442;6.778;2023-03-21T08:44:24;13.82;;;5.68;;
67696;SDS011;54486;51.442;6.778;2023-03-21T08:46:52;12.25;;;5.68;;
67696;SDS011;54486;51.442;6.778;2023-03-21T08:49:20;13.98;;;5.25;;
67696;SDS011;54486;51.442;6.778;2023-03-21T08:51:46;14.93;;;5.68;;
67696;SDS011;54486;51.442;6.778;2023-03-21T08:54:21;13.18;;;4.97;;
67696;SDS011;54486;51.442;6.778;2023-03-21T08:56:49;11.98;;;4.90;;
67696;SDS011;54486;51.442;6.778;2023-03-21T08:59:16;12.27;;;5.13;;
67696;SDS011;54486;51.442;6.778;2023-03-21T09:01:43;13.00;;;5.25;;
67696;SDS011;54486;51.442;6.778;2023-03-21T09:04:11;12.65;;;5.20;;
67696;SDS011;54486;51.442;6.778;2023-03-21T09:06:39;13.40;;;5.15;;
67696;SDS011;54486;51.442;6.778;2023-03-21T09:09:06;12.98;;;5.00;;
67696;SDS011;54486;51.442;6.778;2023-03-21T09:11:34;13.05;;;5.22;;
67696;SDS011;54486;51.442;6.778;2023-03-21T09:14:01;14.50;;;5.85;;
67696;SDS011;54486;51.442;6.778;2023-03-21T09:16:28;14.43;;;5.30;;
67696;SDS011;54486;51.442;6.778;2023-03-21T09:18:57;13.13;;;5.00;;
67696;SDS011;54486;51.442;6.778;2023-03-21T09:21:26;13.98;;;5.68;;
67696;SDS011;54486;51.442;6.778;2023-03-21T09:23:53;16.23;;;5.20;;
67696;SDS011;54486;51.442;6.778;2023-03-21T09:26:24;14.13;;;5.57;;
67696;SDS011;54486;51.442;6.778;2023-03-21T09:28:54;12.57;;;5.18;;
67696;SDS011;54486;51.442;6.778;2023-03-21T09:31:22;13.43;;;5.20;;
67696;SDS011;54486;51.442;6.778;2023-03-21T09:33:51;15.38;;;5.78;;
67696;SDS011;54486;51.442;6.778;2023-03-21T09:36:19;13.85;;;5.05;;
67696;SDS011;54486;51.442;6.778;2023-03-21T09:38:47;13.77;;;5.55;;
67696;SDS011;54486;51.442;6.778;2023-03-21T09:47:02;14.57;;;5.45;;
67696;SDS011;54486;51.442;6.778;2023-03-21T09:49:50;13.65;;;6.18;;
67696;SDS011;54486;51.442;6.778;2023-03-21T09:52:59;14.52;;;6.15;;
67696;SDS011;54486;51.442;6.778;2023-03-21T09:55:32;12.70;;;5.53;;
67696;SDS011;54486;51.442;6.778;2023-03-21T09:58:03;13.97;;;6.23;;
67696;SDS011;54486;51.442;6.778;2023-03-21T10:00:39;13.97;;;5.93;;
67696;SDS011;54486;51.442;6.778;2023-03-21T10:03:22;12.30;;;5.70;;
67696;SDS011;54486;51.442;6.778;2023-03-21T10:05:55;14.70;;;6.38;;
67696;SDS011;54486;51.442;6.778;2023-03-21T10:08:36;14.70;;;6.20;;
67696;SDS011;54486;51.442;6.778;2023-03-21T10:13:55;14.35;;;6.30;;
67696;SDS011;54486;51.442;6.778;2023-03-21T10:19:11;13.98;;;6.22;;
67696;SDS011;54486;51.442;6.778;2023-03-21T10:21:42;14.40;;;5.95;;
67696;SDS011;54486;51.442;6.778;2023-03-21T10:24:26;15.15;;;6.18;;
67696;SDS011;54486;51.442;6.778;2023-03-21T10:26:55;15.33;;;6.60;;
67696;SDS011;54486;51.442;6.778;2023-03-21T10:29:25;15.85;;;6.13;;
67696;SDS011;54486;51.442;6.778;2023-03-21T10:31:55;16.20;;;6.75;;
67696;SDS011;54486;51.442;6.778;2023-03-21T10:34:26;13.32;;;6.28;;
67696;SDS011;54486;51.442;6.778;2023-03-21T10:37:03;14.57;;;6.53;;
67696;SDS011;54486;51.442;6.778;2023-03-21T10:39:42;14.55;;;5.75;;
67696;SDS011;54486;51.442;6.778;2023-03-21T10:42:24;13.90;;;6.45;;
67696;SDS011;54486;51.442;6.778;2023-03-21T10:44:54;13.43;;;6.00;;
67696;SDS011;54486;51.442;6.778;2023-03-21T10:47:23;14.60;;;6.15;;
67696;SDS011;54486;51.442;6.778;2023-03-21T10:49:52;14.65;;;5.97;;
67696;SDS011;54486;51.442;6.778;2023-03-21T10:52:34;15.75;;;6.32;;
67696;SDS011;54486;51.442;6.778;2023-03-21T10:55:07;12.87;;;5.83;;
67696;SDS011;54486;51.442;6.778;2023-03-21T10:57:46;14.75;;;6.20;;
67696;SDS011;54486;51.442;6.778;2023-03-21T11:00:18;14.70;;;6.63;;
67696;SDS011;54486;51.442;6.778;2023-03-21T11:02:49;14.15;;;6.07;;
67696;SDS011;54486;51.442;6.778;2023-03-21T11:05:20;12.70;;;6.10;;
67696;SDS011;54486;51.442;6.778;2023-03-21T11:08:05;13.15;;;5.82;;
67696;SDS011;54486;51.442;6.778;2023-03-21T11:10:47;13.07;;;5.93;;
67696;SDS011;54486;51.442;6.778;2023-03-21T11:13:17;12.68;;;5.72;;
67696;SDS011;54486;51.442;6.778;2023-03-21T11:15:55;11.93;;;5.78;;
67696;SDS011;54486;51.442;6.778;2023-03-21T11:18:25;16.08;;;5.88;;
67696;SDS011;54486;51.442;6.778;2023-03-21T11:21:04;14.30;;;6.57;;
67696;SDS011;54486;51.442;6.778;2023-03-21T11:23:33;13.98;;;6.28;;
67696;SDS011;54486;51.442;6.778;2023-03-21T11:26:07;13.80;;;6.00;;
67696;SDS011;54486;51.442;6.778;2023-03-21T11:28:39;12.40;;;5.20;;
67696;SDS011;54486;51.442;6.778;2023-03-21T11:31:07;15.13;;;5.97;;
67696;SDS011;54486;51.442;6.778;2023-03-21T11:33:36;13.05;;;5.63;;
67696;SDS011;54486;51.442;6.778;2023-03-21T11:36:23;12.55;;;5.32;;
67696;SDS011;54486;51.442;6.778;2023-03-21T11:38:59;12.37;;;5.43;;
67696;SDS011;54486;51.442;6.778;2023-03-21T11:41:39;12.15;;;5.00;;
67696;SDS011;54486;51.442;6.778;2023-03-21T11:44:22;12.23;;;5.15;;
67696;SDS011;54486;51.442;6.778;2023-03-21T11:46:55;11.32;;;4.80;;
67696;SDS011;54486;51.442;6.778;2023-03-21T11:49:23;14.45;;;5.22;;
67696;SDS011;54486;51.442;6.778;2023-03-21T11:55:07;10.83;;;5.00;;
67696;SDS011;54486;51.442;6.778;2023-03-21T11:57:44;11.00;;;4.83;;
67696;SDS011;54486;51.442;6.778;2023-03-21T12:06:25;11.02;;;4.35;;
67696;SDS011;54486;51.442;6.778;2023-03-21T12:09:07;10.88;;;4.53;;
67696;SDS011;54486;51.442;6.778;2023-03-21T12:15:10;11.90;;;4.53;;
67696;SDS011;54486;51.442;6.778;2023-03-21T12:21:04;9.65;;;3.78;;
67696;SDS011;54486;51.442;6.778;2023-03-21T12:29:40;8.80;;;3.80;;
67696;SDS011;54486;51.442;6.778;2023-03-21T12:40:49;10.85;;;4.00;;
67696;SDS011;54486;51.442;6.778;2023-03-21T12:49:39;9.70;;;4.32;;
67696;SDS011;54486;51.442;6.778;2023-03-21T12:52:05;10.80;;;3.65;;
67696;SDS011;54486;51.442;6.778;2023-03-21T12:54:39;10.30;;;3.70;;
67696;SDS011;54486;51.442;6.778;2023-03-21T13:02:43;10.90;;;3.70;;
67696;SDS011;54486;51.442;6.778;2023-03-21T13:10:46;9.65;;;3.88;;
67696;SDS011;54486;51.442;6.778;2023-03-21T13:15:58;11.77;;;4.17;;
67696;SDS011;54486;51.442;6.778;2023-03-21T13:26:56;10.35;;;3.78;;
67696;SDS011;54486;51.442;6.778;2023-03-21T13:32:17;10.80;;;3.80;;
67696;SDS011;54486;51.442;6.778;2023-03-21T13:38:36;9.20;;;3.70;;
67696;SDS011;54486;51.442;6.778;2023-03-21T13:40:56;12.10;;;3.88;;
67696;SDS011;54486;51.442;6.778;2023-03-21T13:43:34;8.80;;;3.50;;
67696;SDS011;54486;51.442;6.778;2023-03-21T13:54:02;10.55;;;3.78;;
67696;SDS011;54486;51.442;6.778;2023-03-21T13:56:51;9.07;;;3.42;;
67696;SDS011;54486;51.442;6.778;2023-03-21T14:04:42;9.20;;;3.78;;
67696;SDS011;54486;51.442;6.778;2023-03-21T14:07:31;10.90;;;3.63;;
67696;SDS011;54486;51.442;6.778;2023-03-21T14:10:03;9.02;;;3.50;;
67696;SDS011;54486;51.442;6.778;2023-03-21T14:12:39;8.73;;;3.65;;
67696;SDS011;54486;51.442;6.778;2023-03-21T14:15:13;9.43;;;3.80;;
67696;SDS011;54486;51.442;6.778;2023-03-21T14:17:53;9.60;;;3.50;;
67696;SDS011;54486;51.442;6.778;2023-03-21T14:20:24;11.38;;;3.60;;
67696;SDS011;54486;51.442;6.778;2023-03-21T14:22:53;9.55;;;3.83;;
67696;SDS011;54486;51.442;6.778;2023-03-21T14:25:22;8.75;;;3.47;;
67696;SDS011;54486;51.442;6.778;2023-03-21T14:27:59;8.93;;;3.88;;
67696;SDS011;54486;51.442;6.778;2023-03-21T14:30:36;9.88;;;3.80;;
67696;SDS011;54486;51.442;6.778;2023-03-21T14:33:26;9.02;;;3.85;;
67696;SDS011;54486;51.442;6.778;2023-03-21T14:36:08;9.43;;;3.67;;
67696;SDS011;54486;51.442;6.778;2023-03-21T14:38:39;10.75;;;3.58;;
67696;SDS011;54486;51.442;6.778;2023-03-21T14:41:20;8.67;;;3.60;;
67696;SDS011;54486;51.442;6.778;2023-03-21T14:46:43;9.75;;;3.75;;
67696;SDS011;54486;51.442;6.778;2023-03-21T14:51:38;8.82;;;3.70;;
67696;SDS011;54486;51.442;6.778;2023-03-21T14:54:10;9.52;;;3.97;;
67696;SDS011;54486;51.442;6.778;2023-03-21T14:56:39;8.77;;;3.50;;
67696;SDS011;54486;51.442;6.778;2023-03-21T14:59:08;9.32;;;3.60;;
67696;SDS011;54486;51.442;6.778;2023-03-21T15:01:39;9.18;;;3.55;;
67696;SDS011;54486;51.442;6.778;2023-03-21T15:04:06;9.43;;;3.42;;
67696;SDS011;54486;51.442;6.778;2023-03-21T15:06:33;8.20;;;3.42;;
67696;SDS011;54486;51.442;6.778;2023-03-21T15:09:18;9.18;;;3.60;;
67696;SDS011;54486;51.442;6.778;2023-03-21T15:11:52;10.60;;;3.40;;
67696;SDS011;54486;51.442;6.778;2023-03-21T15:14:25;10.57;;;3.38;;
67696;SDS011;54486;51.442;6.778;2023-03-21T15:16:59;8.63;;;3.45;;
67696;SDS011;54486;51.442;6.778;2023-03-21T15:19:33;9.35;;;3.50;;
67696;SDS011;54486;51.442;6.778;2023-03-21T15:22:08;9.32;;;3.38;;
67696;SDS011;54486;51.442;6.778;2023-03-21T15:24:44;9.52;;;3.70;;
67696;SDS011;54486;51.442;6.778;2023-03-21T15:27:17;8.43;;;3.05;;
67696;SDS011;54486;51.442;6.778;2023-03-21T15:29:49;9.20;;;3.50;;
67696;SDS011;54486;51.442;6.778;2023-03-21T15:32:22;9.43;;;3.28;;
67696;SDS011;54486;51.442;6.778;2023-03-21T15:35:03;8.70;;;3.17;;
67696;SDS011;54486;51.442;6.778;2023-03-21T15:37:40;8.68;;;3.13;;
67696;SDS011;54486;51.442;6.778;2023-03-21T15:45:53;8.90;;;3.63;;
67696;SDS011;54486;51.442;6.778;2023-03-21T15:48:28;8.85;;;3.42;;
67696;SDS011;54486;51.442;6.778;2023-03-21T15:51:04;8.73;;;3.35;;
67696;SDS011;54486;51.442;6.778;2023-03-21T15:53:34;8.35;;;3.40;;
67696;SDS011;54486;51.442;6.778;2023-03-21T15:56:04;9.57;;;3.90;;
67696;SDS011;54486;51.442;6.778;2023-03-21T15:58:44;8.40;;;3.42;;
67696;SDS011;54486;51.442;6.778;2023-03-21T16:01:19;9.48;;;3.88;;
67696;SDS011;54486;51.442;6.778;2023-03-21T16:03:54;9.30;;;3.40;;
67696;SDS011;54486;51.442;6.778;2023-03-21T16:06:28;9.50;;;3.60;;
67696;SDS011;54486;51.442;6.778;2023-03-21T16:09:04;10.73;;;3.97;;
67696;SDS011;54486;51.442;6.778;2023-03-21T16:11:37;8.50;;;3.42;;
67696;SDS011;54486;51.442;6.778;2023-03-21T16:14:08;9.97;;;3.70;;
67696;SDS011;54486;51.442;6.778;2023-03-21T16:16:37;9.70;;;3.70;;
67696;SDS011;54486;51.442;6.778;2023-03-21T16:19:04;9.25;;;3.70;;
67696;SDS011;54486;51.442;6.778;2023-03-21T16:21:32;8.70;;;3.80;;
67696;SDS011;54486;51.442;6.778;2023-03-21T16:24:04;10.35;;;3.70;;
67696;SDS011;54486;51.442;6.778;2023-03-21T16:26:32;9.82;;;3.67;;
67696;SDS011;54486;51.442;6.778;2023-03-21T16:29:04;8.80;;;3.77;;
67696;SDS011;54486;51.442;6.778;2023-03-21T16:31:34;9.70;;;3.78;;
67696;SDS011;54486;51.442;6.778;2023-03-21T16:34:03;8.97;;;3.30;;
67696;SDS011;54486;51.442;6.778;2023-03-21T16:36:32;10.00;;;3.60;;
67696;SDS011;54486;51.442;6.778;2023-03-21T16:39:24;8.65;;;3.60;;
67696;SDS011;54486;51.442;6.778;2023-03-21T16:41:54;8.77;;;3.57;;
67696;SDS011;54486;51.442;6.778;2023-03-21T16:44:21;8.38;;;3.50;;
67696;SDS011;54486;51.442;6.778;2023-03-21T16:46:48;9.75;;;4.00;;
67696;SDS011;54486;51.442;6.778;2023-03-21T16:49:19;9.13;;;3.35;;
67696;SDS011;54486;51.442;6.778;2023-03-21T16:51:52;9.68;;;3.83;;
67696;SDS011;54486;51.442;6.778;2023-03-21T16:54:22;10.00;;;3.83;;
67696;SDS011;54486;51.442;6.778;2023-03-21T16:56:50;9.10;;;3.45;;
67696;SDS011;54486;51.442;6.778;2023-03-21T16:59:19;9.75;;;3.80;;
67696;SDS011;54486;51.442;6.778;2023-03-21T17:01:47;8.77;;;3.67;;
67696;SDS011;54486;51.442;6.778;2023-03-21T17:04:16;8.85;;;3.80;;
67696;SDS011;54486;51.442;6.778;2023-03-21T17:06:47;9.88;;;3.80;;
67696;SDS011;54486;51.442;6.778;2023-03-21T17:09:18;9.75;;;3.75;;
67696;SDS011;54486;51.442;6.778;2023-03-21T17:11:47;10.77;;;4.20;;
67696;SDS011;54486;51.442;6.778;2023-03-21T17:14:15;9.43;;;3.97;;
67696;SDS011;54486;51.442;6.778;2023-03-21T17:16:47;10.32;;;4.40;;
67696;SDS011;54486;51.442;6.778;2023-03-21T17:19:19;10.52;;;4.07;;